Time;durP1;ratioP1;P1;durP2;ratioP2;P2;SDS_P1;SDS_P2;PMS_P1;PMS_P2;Temp;Humidity;BMP_temperature;BMP_pressure;BME280_temperature;BME280_humidity;BME280_pressure;Samples;Min_cycle;Max_cycle;Signal;HPM_P1;HPM_P2
2021/01/09 00:00:34;;;;;;;4.57;1.30;;;0.80;99.90;;;;;;4987612;28;20228;-80
2021/01/09 00:03:00;;;;;;;1.80;1.30;;;0.80;99.90;;;;;;4987713;28;20211;-80
2021/01/09 00:05:27;;;;;;;1.90;1.13;;;0.80;99.90;;;;;;4988435;28;20211;-79
2021/01/09 00:07:53;;;;;;;2.37;1.33;;;0.80;99.90;;;;;;4987199;28;20726;-79
2021/01/09 00:10:19;;;;;;;2.20;1.33;;;0.80;99.90;;;;;;4987152;28;20204;-80
2021/01/09 00:12:45;;;;;;;1.70;1.00;;;0.80;99.90;;;;;;4987524;28;20208;-80
2021/01/09 00:15:12;;;;;;;3.30;1.47;;;0.80;99.90;;;;;;4987599;28;20192;-80
2021/01/09 00:17:39;;;;;;;2.57;1.50;;;0.70;99.90;;;;;;4986545;28;20208;-79
2021/01/09 00:20:08;;;;;;;2.17;1.37;;;0.70;99.90;;;;;;4987365;28;20208;-78
2021/01/09 00:22:34;;;;;;;4.07;1.60;;;0.70;99.90;;;;;;4986721;28;20214;-80
2021/01/09 00:25:00;;;;;;;1.53;1.30;;;0.60;99.90;;;;;;4986868;28;20884;-79
2021/01/09 00:27:27;;;;;;;2.20;1.60;;;0.60;99.90;;;;;;4988103;28;20274;-79
2021/01/09 00:29:53;;;;;;;4.90;1.80;;;0.50;99.90;;;;;;4987138;28;20900;-78
2021/01/09 00:32:19;;;;;;;3.07;1.90;;;0.50;99.90;;;;;;4986881;28;20208;-79
2021/01/09 00:34:47;;;;;;;3.10;1.60;;;0.40;99.90;;;;;;4987272;28;20206;-80
2021/01/09 00:37:13;;;;;;;3.77;1.40;;;0.40;99.90;;;;;;4987644;28;20246;-79
2021/01/09 00:39:39;;;;;;;2.00;1.43;;;0.40;99.90;;;;;;4985954;28;20531;-79
2021/01/09 00:42:05;;;;;;;3.07;1.50;;;0.40;99.90;;;;;;4987132;28;20228;-78
2021/01/09 00:44:32;;;;;;;3.30;1.47;;;0.30;99.90;;;;;;4986824;28;20208;-80
2021/01/09 00:46:59;;;;;;;1.90;1.40;;;0.30;99.90;;;;;;4986211;28;20223;-81
2021/01/09 00:49:26;;;;;;;2.80;1.50;;;0.30;99.90;;;;;;4986327;28;20893;-80
2021/01/09 00:51:53;;;;;;;3.90;2.30;;;0.20;99.90;;;;;;4986385;28;20204;-80
2021/01/09 00:54:20;;;;;;;3.90;1.20;;;0.20;99.90;;;;;;4987361;28;20307;-80
2021/01/09 00:56:46;;;;;;;2.13;1.57;;;0.20;99.90;;;;;;4986948;28;20208;-80
2021/01/09 00:59:13;;;;;;;1.33;1.23;;;0.20;99.90;;;;;;4986775;28;20207;-80
2021/01/09 01:01:39;;;;;;;2.83;1.60;;;0.20;99.90;;;;;;4987642;28;20200;-79
2021/01/09 01:04:05;;;;;;;3.80;1.77;;;0.10;99.90;;;;;;4987280;28;20196;-79
2021/01/09 01:06:31;;;;;;;1.70;1.27;;;0.10;99.90;;;;;;4986773;28;20204;-79
2021/01/09 01:08:58;;;;;;;2.47;1.83;;;0.10;99.90;;;;;;4987667;28;20497;-80
2021/01/09 01:11:27;;;;;;;2.03;1.47;;;0.10;99.90;;;;;;4987168;28;20203;-79
2021/01/09 01:13:54;;;;;;;2.50;1.57;;;0.00;99.90;;;;;;4986743;28;20611;-80
2021/01/09 01:16:21;;;;;;;2.90;1.50;;;0.00;99.90;;;;;;4985340;28;20211;-79
2021/01/09 01:18:48;;;;;;;4.53;1.63;;;0.00;99.90;;;;;;4984152;28;20218;-79
2021/01/09 01:21:14;;;;;;;2.10;1.47;;;0.00;99.90;;;;;;4985956;28;20200;-80
2021/01/09 01:23:41;;;;;;;2.10;1.50;;;0.00;99.90;;;;;;4985920;28;20197;-78
2021/01/09 01:26:10;;;;;;;2.00;1.63;;;0.00;99.90;;;;;;4985438;28;20578;-76
2021/01/09 01:28:36;;;;;;;2.43;1.50;;;-0.10;99.90;;;;;;4984807;28;20258;-78
2021/01/09 01:31:03;;;;;;;3.03;1.80;;;-0.10;99.90;;;;;;4986554;28;20219;-78
2021/01/09 01:33:29;;;;;;;1.50;1.07;;;-0.10;99.90;;;;;;4985903;28;20911;-79
2021/01/09 01:35:56;;;;;;;2.90;1.30;;;-0.10;99.90;;;;;;4985814;28;20200;-79
2021/01/09 01:38:23;;;;;;;1.63;1.27;;;-0.10;99.90;;;;;;4986004;28;20553;-79
2021/01/09 01:40:49;;;;;;;1.97;1.30;;;-0.10;99.90;;;;;;4985822;28;20274;-78
2021/01/09 01:43:17;;;;;;;1.90;1.40;;;-0.20;99.90;;;;;;4985161;28;20576;-79
2021/01/09 01:45:44;;;;;;;2.63;1.70;;;-0.20;99.90;;;;;;4985961;28;20242;-78
2021/01/09 01:48:11;;;;;;;2.33;1.70;;;-0.20;99.90;;;;;;4985940;28;21019;-77
2021/01/09 01:50:38;;;;;;;2.13;1.57;;;-0.20;99.90;;;;;;4984610;28;20631;-79
2021/01/09 01:53:06;;;;;;;1.60;1.50;;;-0.20;99.90;;;;;;4985870;28;20243;-78
2021/01/09 01:55:33;;;;;;;1.73;1.30;;;-0.20;99.90;;;;;;4985492;28;20263;-79
2021/01/09 01:57:59;;;;;;;1.97;1.50;;;-0.20;99.90;;;;;;4985690;28;20211;-79
2021/01/09 02:00:27;;;;;;;2.63;1.47;;;-0.20;99.90;;;;;;4984349;28;20208;-78
2021/01/09 02:02:54;;;;;;;1.97;1.63;;;-0.20;99.90;;;;;;4985255;28;20903;-82
2021/01/09 02:05:23;;;;;;;1.47;1.37;;;-0.20;99.90;;;;;;4986780;28;20270;-83
2021/01/09 02:07:54;;;;;;;2.60;1.40;;;-0.30;99.90;;;;;;4986948;28;20234;-80
2021/01/09 02:10:23;;;;;;;2.20;1.37;;;-0.30;99.90;;;;;;4986117;28;20212;-82
2021/01/09 02:12:58;;;;;;;4.07;1.50;;;-0.30;99.90;;;;;;4986837;28;20215;-82
2021/01/09 02:15:26;;;;;;;1.83;1.30;;;-0.30;99.90;;;;;;4985672;28;20263;-82
2021/01/09 02:17:53;;;;;;;2.03;1.83;;;-0.30;99.90;;;;;;4985308;28;20966;-82
2021/01/09 02:20:21;;;;;;;3.93;1.40;;;-0.30;99.90;;;;;;4986120;28;20207;-82
2021/01/09 02:22:50;;;;;;;2.07;1.67;;;-0.40;99.90;;;;;;4986879;28;20212;-83
2021/01/09 02:25:16;;;;;;;2.13;1.30;;;-0.30;99.90;;;;;;4987875;28;20232;-82
2021/01/09 02:27:43;;;;;;;3.40;1.67;;;-0.40;99.90;;;;;;4987123;28;20282;-81
2021/01/09 02:30:14;;;;;;;1.33;1.20;;;-0.40;99.90;;;;;;4986921;28;20621;-81
2021/01/09 02:32:47;;;;;;;2.90;1.67;;;-0.40;99.90;;;;;;4987369;28;20258;-82
2021/01/09 02:35:16;;;;;;;2.23;1.30;;;-0.40;99.90;;;;;;4987610;28;20200;-82
2021/01/09 02:37:44;;;;;;;2.20;2.00;;;-0.40;99.90;;;;;;4981088;28;20276;-82
2021/01/09 02:40:15;;;;;;;1.50;1.40;;;-0.40;99.90;;;;;;4977188;28;20228;-82
2021/01/09 02:42:42;;;;;;;1.50;1.40;;;-0.40;99.90;;;;;;4986307;28;20216;-82
2021/01/09 02:45:09;;;;;;;3.23;1.40;;;-0.40;99.90;;;;;;4985626;28;20506;-82
2021/01/09 02:47:35;;;;;;;3.03;1.50;;;-0.40;99.90;;;;;;4985452;28;20228;-82
2021/01/09 02:50:02;;;;;;;2.20;1.70;;;-0.40;99.90;;;;;;4986604;28;20250;-81
2021/01/09 02:52:28;;;;;;;2.70;1.40;;;-0.40;99.90;;;;;;4984720;28;20224;-83
2021/01/09 02:54:54;;;;;;;2.70;1.53;;;-0.40;99.90;;;;;;4985770;28;20216;-82
2021/01/09 02:57:21;;;;;;;3.80;1.50;;;-0.40;99.90;;;;;;4986625;28;20255;-82
2021/01/09 02:59:48;;;;;;;2.87;1.40;;;-0.50;99.90;;;;;;4985363;28;20606;-80
2021/01/09 03:02:14;;;;;;;1.53;1.43;;;-0.50;99.90;;;;;;4986066;28;20216;-80
2021/01/09 03:04:41;;;;;;;3.77;1.90;;;-0.50;99.90;;;;;;4985859;28;20203;-79
2021/01/09 03:07:07;;;;;;;3.57;1.40;;;-0.50;99.90;;;;;;4985013;28;20278;-78
2021/01/09 03:09:33;;;;;;;1.87;1.30;;;-0.50;99.90;;;;;;4984406;28;20286;-78
2021/01/09 03:11:59;;;;;;;2.33;1.27;;;-0.50;99.90;;;;;;4984009;28;20215;-79
2021/01/09 03:14:26;;;;;;;1.87;1.50;;;-0.50;99.90;;;;;;4983109;28;20215;-79
2021/01/09 03:16:53;;;;;;;2.90;1.60;;;-0.50;99.90;;;;;;4983545;28;20207;-78
2021/01/09 03:19:19;;;;;;;3.47;1.80;;;-0.50;99.90;;;;;;4983751;28;20255;-79
2021/01/09 03:21:45;;;;;;;2.53;1.90;;;-0.50;99.90;;;;;;4983237;28;20623;-78
2021/01/09 03:24:11;;;;;;;2.57;1.30;;;-0.50;99.90;;;;;;4983355;28;20299;-79
2021/01/09 03:26:37;;;;;;;2.57;1.70;;;-0.50;99.90;;;;;;4982853;28;20207;-78
2021/01/09 03:29:04;;;;;;;1.60;1.50;;;-0.50;99.90;;;;;;4983965;28;20228;-78
2021/01/09 03:31:31;;;;;;;2.83;1.33;;;-0.60;99.90;;;;;;4982457;28;20204;-78
2021/01/09 03:33:57;;;;;;;2.17;1.43;;;-0.50;99.90;;;;;;4983069;28;20200;-78
2021/01/09 03:36:23;;;;;;;2.10;1.73;;;-0.60;99.90;;;;;;4983529;28;20208;-78
2021/01/09 03:38:50;;;;;;;2.80;1.43;;;-0.60;99.90;;;;;;4982796;28;20212;-78
2021/01/09 03:41:16;;;;;;;1.93;1.40;;;-0.60;99.90;;;;;;4982684;28;20196;-78
2021/01/09 03:43:42;;;;;;;2.80;1.73;;;-0.60;99.90;;;;;;4983162;28;20218;-78
2021/01/09 03:46:09;;;;;;;2.13;1.47;;;-0.70;99.90;;;;;;4983112;28;20274;-78
2021/01/09 03:48:36;;;;;;;3.67;1.40;;;-0.60;99.90;;;;;;4982390;28;20236;-78
2021/01/09 03:51:02;;;;;;;3.40;1.33;;;-0.70;99.90;;;;;;4983265;28;20225;-78
2021/01/09 03:53:28;;;;;;;2.20;1.30;;;-0.70;99.90;;;;;;4982427;28;20231;-80
2021/01/09 03:55:54;;;;;;;4.10;1.60;;;-0.70;99.90;;;;;;4982709;28;20212;-78
2021/01/09 03:58:21;;;;;;;2.50;1.70;;;-0.70;99.90;;;;;;4982795;28;20286;-79
2021/01/09 04:00:47;;;;;;;2.30;1.57;;;-0.70;99.90;;;;;;4983045;28;20208;-78
2021/01/09 04:03:14;;;;;;;2.73;1.30;;;-0.70;99.90;;;;;;4983349;28;20203;-78
2021/01/09 04:05:41;;;;;;;2.80;1.50;;;-0.70;99.90;;;;;;4982985;28;20204;-78
2021/01/09 04:08:07;;;;;;;1.40;1.30;;;-0.70;99.90;;;;;;4982999;28;20223;-78
2021/01/09 04:10:34;;;;;;;3.43;1.77;;;-0.70;99.90;;;;;;4981871;28;20208;-78
2021/01/09 04:13:00;;;;;;;3.50;1.40;;;-0.70;99.90;;;;;;4982887;28;20212;-79
2021/01/09 04:15:27;;;;;;;4.20;1.70;;;-0.70;99.90;;;;;;4982878;28;20192;-78
2021/01/09 04:17:53;;;;;;;1.97;1.63;;;-0.70;99.90;;;;;;4982267;28;20599;-79
2021/01/09 04:20:19;;;;;;;3.17;1.60;;;-0.70;99.90;;;;;;4982854;28;20282;-78
2021/01/09 04:22:46;;;;;;;1.87;1.50;;;-0.70;99.90;;;;;;4983466;28;20226;-78
2021/01/09 04:25:13;;;;;;;2.00;1.40;;;-0.80;99.90;;;;;;4986710;28;20196;-78
2021/01/09 04:27:39;;;;;;;2.23;1.57;;;-0.80;99.90;;;;;;4985611;28;20228;-78
2021/01/09 04:30:06;;;;;;;4.53;1.50;;;-0.80;99.90;;;;;;4985995;28;20196;-79
2021/01/09 04:32:33;;;;;;;1.57;1.30;;;-0.80;99.90;;;;;;4986627;28;20203;-78
2021/01/09 04:34:59;;;;;;;5.27;1.70;;;-0.80;99.90;;;;;;4986429;28;20212;-78
2021/01/09 04:37:26;;;;;;;1.30;1.13;;;-0.80;99.90;;;;;;4985997;28;20200;-78
2021/01/09 04:39:53;;;;;;;2.70;1.23;;;-0.80;99.90;;;;;;4985680;28;20192;-79
2021/01/09 04:42:19;;;;;;;2.60;1.40;;;-0.80;99.90;;;;;;4986113;28;20220;-77
2021/01/09 04:44:45;;;;;;;2.23;1.30;;;-0.90;99.90;;;;;;4985239;28;20879;-78
2021/01/09 04:47:12;;;;;;;3.77;1.40;;;-0.90;99.90;;;;;;4985579;28;20231;-79
2021/01/09 04:49:39;;;;;;;1.47;1.33;;;-0.90;99.90;;;;;;4983865;28;20207;-79
2021/01/09 04:52:06;;;;;;;1.77;1.43;;;-0.90;99.90;;;;;;4983977;28;20207;-79
2021/01/09 04:54:33;;;;;;;4.17;1.40;;;-0.90;99.90;;;;;;4983269;28;20243;-79
2021/01/09 04:57:01;;;;;;;2.67;1.70;;;-0.90;99.90;;;;;;4983870;28;20200;-81
2021/01/09 04:59:27;;;;;;;2.90;1.90;;;-0.90;99.90;;;;;;4985448;28;20211;-80
2021/01/09 05:01:53;;;;;;;1.77;1.57;;;-0.90;99.90;;;;;;4985869;28;20742;-79
2021/01/09 05:04:20;;;;;;;3.67;1.80;;;-0.90;99.90;;;;;;4985769;28;20287;-79
2021/01/09 05:06:48;;;;;;;2.27;2.00;;;-0.90;99.90;;;;;;4984742;28;20196;-78
2021/01/09 05:09:16;;;;;;;6.30;2.60;;;-0.90;99.90;;;;;;4985093;28;20224;-80
2021/01/09 05:11:43;;;;;;;3.63;2.03;;;-0.90;99.90;;;;;;4983812;28;20270;-78
2021/01/09 05:14:11;;;;;;;5.00;2.33;;;-1.00;99.90;;;;;;4985779;28;20218;-81
2021/01/09 05:16:38;;;;;;;3.07;1.83;;;-1.00;99.90;;;;;;4985307;28;20215;-78
2021/01/09 05:19:06;;;;;;;2.70;1.47;;;-1.00;99.90;;;;;;4984331;28;20207;-79
2021/01/09 05:21:36;;;;;;;6.17;1.90;;;-0.90;99.90;;;;;;4984771;28;20231;-81
2021/01/09 05:24:07;;;;;;;3.97;1.90;;;-0.90;99.90;;;;;;4985847;28;20291;-80
2021/01/09 05:26:34;;;;;;;2.93;1.73;;;-0.90;99.90;;;;;;4984075;28;20199;-79
2021/01/09 05:29:03;;;;;;;3.60;2.10;;;-0.90;99.90;;;;;;4985311;28;20243;-79
2021/01/09 05:31:35;;;;;;;3.27;1.93;;;-1.00;99.90;;;;;;4986321;28;20223;-79
2021/01/09 05:34:02;;;;;;;4.13;1.90;;;-0.90;99.90;;;;;;4985686;28;20204;-79
2021/01/09 05:36:28;;;;;;;4.67;2.30;;;-0.90;99.90;;;;;;4986612;28;20192;-80
2021/01/09 05:38:54;;;;;;;5.00;2.13;;;-0.90;99.90;;;;;;4986819;28;20200;-80
2021/01/09 05:41:22;;;;;;;1.83;1.60;;;-0.90;99.90;;;;;;4986361;28;20210;-80
2021/01/09 05:43:58;;;;;;;6.30;2.40;;;-0.90;99.90;;;;;;4986434;28;20620;-81
2021/01/09 05:46:25;;;;;;;2.67;1.70;;;-0.90;99.90;;;;;;4986732;28;20524;-80
2021/01/09 05:48:52;;;;;;;4.47;1.93;;;-0.90;99.90;;;;;;4986037;28;20293;-79
2021/01/09 05:51:19;;;;;;;3.33;2.00;;;-0.90;99.90;;;;;;4985348;28;20227;-80
2021/01/09 05:53:47;;;;;;;3.50;1.83;;;-1.00;99.90;;;;;;4982883;28;20239;-80
2021/01/09 05:56:15;;;;;;;3.53;2.03;;;-0.90;99.90;;;;;;4983487;28;20238;-80
2021/01/09 05:58:42;;;;;;;4.50;1.80;;;-0.90;99.90;;;;;;4984894;28;20207;-80
2021/01/09 06:01:10;;;;;;;4.60;1.87;;;-0.90;99.90;;;;;;4984195;28;20274;-81
2021/01/09 06:03:44;;;;;;;4.73;1.83;;;-0.90;99.90;;;;;;4984805;28;20208;-79
2021/01/09 06:06:28;;;;;;;8.30;3.67;;;-0.90;99.90;;;;;;4984844;28;20492;-78
2021/01/09 06:09:00;;;;;;;4.80;2.13;;;-0.90;99.90;;;;;;4983940;28;20796;-80
2021/01/09 06:11:31;;;;;;;6.13;2.47;;;-0.90;99.90;;;;;;4984603;28;20204;-79
2021/01/09 06:14:00;;;;;;;7.07;2.37;;;-0.90;99.90;;;;;;4984626;28;20219;-82
2021/01/09 06:16:31;;;;;;;7.27;2.30;;;-0.80;99.90;;;;;;4984128;28;20314;-78
2021/01/09 06:18:58;;;;;;;6.37;2.73;;;-0.80;99.90;;;;;;4984971;28;20312;-79
2021/01/09 06:21:26;;;;;;;6.43;2.40;;;-0.80;99.90;;;;;;4984882;28;20271;-78
2021/01/09 06:23:56;;;;;;;7.60;2.67;;;-0.80;99.90;;;;;;4984207;28;20846;-79
2021/01/09 06:26:24;;;;;;;4.70;2.30;;;-0.80;99.90;;;;;;4984275;28;20212;-78
2021/01/09 06:28:55;;;;;;;6.97;1.90;;;-0.80;99.90;;;;;;4984137;28;20239;-79
2021/01/09 06:31:24;;;;;;;12.97;3.00;;;-0.80;99.90;;;;;;4984602;28;20192;-78
2021/01/09 06:33:52;;;;;;;4.93;2.00;;;-0.80;99.90;;;;;;4984367;28;20215;-78
2021/01/09 06:36:20;;;;;;;7.73;2.00;;;-0.80;99.90;;;;;;4983383;28;20590;-78
2021/01/09 06:38:50;;;;;;;3.20;1.40;;;-0.80;99.90;;;;;;4983726;28;20204;-78
2021/01/09 06:41:17;;;;;;;3.23;1.90;;;-0.80;99.90;;;;;;4984152;28;20212;-78
2021/01/09 06:43:46;;;;;;;3.67;1.70;;;-0.80;99.90;;;;;;4983628;28;20208;-79
2021/01/09 06:46:25;;;;;;;7.13;2.10;;;-0.80;99.90;;;;;;4984516;28;20211;-79
2021/01/09 06:48:52;;;;;;;5.07;1.70;;;-0.80;99.90;;;;;;4983932;28;20307;-80
2021/01/09 06:51:41;;;;;;;5.37;1.90;;;-0.80;99.90;;;;;;4982791;28;20196;-80
2021/01/09 06:54:24;;;;;;;3.77;1.67;;;-0.80;99.90;;;;;;4981904;28;20904;-79
2021/01/09 06:57:07;;;;;;;11.63;2.13;;;-0.80;99.90;;;;;;4981705;28;20203;-79
2021/01/09 06:59:34;;;;;;;5.10;2.17;;;-0.80;99.90;;;;;;4983587;28;20195;-80
2021/01/09 07:02:12;;;;;;;5.03;1.90;;;-0.80;99.90;;;;;;4984059;28;20207;-78
2021/01/09 07:04:59;;;;;;;7.93;1.67;;;-0.90;99.90;;;;;;4983688;28;20211;-78
2021/01/09 07:07:36;;;;;;;9.57;1.77;;;-0.80;99.90;;;;;;4984293;28;20208;-79
2021/01/09 07:10:07;;;;;;;4.93;1.90;;;-0.70;99.90;;;;;;4984558;28;20789;-79
2021/01/09 07:12:34;;;;;;;9.00;1.90;;;-0.60;99.90;;;;;;4984703;28;20230;-81
2021/01/09 07:15:08;;;;;;;10.37;1.80;;;-0.50;99.90;;;;;;4984557;28;20220;-79
2021/01/09 07:17:36;;;;;;;11.53;1.80;;;-0.40;99.90;;;;;;4984216;28;20724;-79
2021/01/09 07:20:05;;;;;;;2.40;1.40;;;-0.30;99.90;;;;;;4984479;28;20204;-80
2021/01/09 07:22:34;;;;;;;6.67;1.87;;;-0.20;99.90;;;;;;5006558;23;20238;-79
2021/01/09 07:25:00;;;;;;;6.57;1.57;;;-0.10;99.90;;;;;;5025326;28;20202;-81
2021/01/09 07:27:34;;;;;;;9.50;1.70;;;0.00;99.90;;;;;;5024757;28;20234;-81
2021/01/09 07:30:07;;;;;;;4.70;1.67;;;0.00;99.90;;;;;;5025544;28;20187;-81
2021/01/09 07:32:40;;;;;;;4.30;1.40;;;0.00;99.90;;;;;;5023294;28;20203;-78
2021/01/09 07:35:08;;;;;;;3.40;1.20;;;0.00;99.90;;;;;;5023533;28;20567;-78
2021/01/09 07:37:38;;;;;;;8.20;2.07;;;0.00;99.90;;;;;;5023855;28;20203;-79
2021/01/09 07:40:12;;;;;;;5.23;1.90;;;0.00;99.90;;;;;;5023299;28;20324;-77
2021/01/09 07:42:40;;;;;;;5.87;1.40;;;-0.10;99.90;;;;;;5035150;28;20947;-80
2021/01/09 07:45:09;;;;;;;3.37;1.23;;;-0.10;99.90;;;;;;5044080;28;20260;-80
2021/01/09 07:47:39;;;;;;;4.93;1.43;;;-0.10;99.90;;;;;;5042280;28;20248;-80
2021/01/09 07:50:07;;;;;;;4.70;1.70;;;-0.10;99.90;;;;;;5043121;28;20567;-81
2021/01/09 07:52:34;;;;;;;3.10;1.50;;;-0.20;99.90;;;;;;5043406;28;20593;-79
2021/01/09 07:55:02;;;;;;;4.23;1.77;;;-0.20;99.90;;;;;;5043096;28;20579;-79
2021/01/09 07:57:30;;;;;;;8.20;1.87;;;-0.20;99.90;;;;;;5044918;28;20198;-79
2021/01/09 08:00:21;;;;;;;5.73;1.80;;;-0.20;99.90;;;;;;5047003;28;20253;-80
2021/01/09 08:02:47;;;;;;;4.67;2.10;;;-0.20;99.90;;;;;;5046776;28;20197;-80
2021/01/09 08:05:16;;;;;;;4.93;2.10;;;-0.20;99.90;;;;;;5046457;28;20209;-80
2021/01/09 08:07:44;;;;;;;7.17;3.63;;;-0.20;99.90;;;;;;5046657;28;20785;-81
2021/01/09 08:10:29;;;;;;;13.07;3.27;;;-0.20;99.90;;;;;;5047424;28;20415;-81
2021/01/09 08:12:58;;;;;;;11.67;2.70;;;-0.10;99.90;;;;;;5048016;28;20201;-78
2021/01/09 08:15:28;;;;;;;8.47;2.17;;;-0.10;99.90;;;;;;5046362;28;20637;-80
2021/01/09 08:17:54;;;;;;;6.27;2.57;;;0.00;99.90;;;;;;5047012;28;20198;-78
2021/01/09 08:20:21;;;;;;;9.07;2.00;;;0.10;99.90;;;;;;5046924;28;20213;-80
2021/01/09 08:22:53;;;;;;;6.13;1.80;;;0.10;99.90;;;;;;5045709;28;20245;-79
2021/01/09 08:25:20;;;;;;;9.60;3.00;;;0.20;99.90;;;;;;5046810;28;20289;-78
2021/01/09 08:27:53;;;;;;;7.90;2.27;;;0.20;99.90;;;;;;5046425;28;20238;-79
2021/01/09 08:30:22;;;;;;;7.03;2.60;;;0.20;99.90;;;;;;5047012;28;20206;-78
2021/01/09 08:32:50;;;;;;;4.43;2.20;;;0.20;99.90;;;;;;5047098;28;20289;-81
2021/01/09 08:35:17;;;;;;;10.50;2.20;;;0.20;99.90;;;;;;5047377;28;20248;-80
2021/01/09 08:37:44;;;;;;;5.50;2.03;;;0.30;99.90;;;;;;5046590;28;20209;-78
2021/01/09 08:56:44;;;;;;;5.53;1.60;;;0.60;99.90;;;;;;5176933;23;20245;-78
2021/01/09 08:59:12;;;;;;;7.80;2.10;;;0.60;99.90;;;;;;5045938;28;20209;-77
2021/01/09 09:01:42;;;;;;;8.20;1.60;;;0.50;99.90;;;;;;5046174;28;20224;-77
2021/01/09 09:04:10;;;;;;;3.13;1.70;;;0.50;99.90;;;;;;5045461;28;20217;-78
2021/01/09 09:06:38;;;;;;;5.37;1.73;;;0.60;99.90;;;;;;5044819;28;20205;-77
2021/01/09 09:09:05;;;;;;;6.87;1.60;;;0.50;99.90;;;;;;5045089;28;20233;-76
2021/01/09 09:11:31;;;;;;;3.30;1.40;;;0.50;99.90;;;;;;5044199;28;20289;-77
2021/01/09 09:14:06;;;;;;;5.77;1.57;;;0.50;99.90;;;;;;5045005;28;20209;-77
2021/01/09 09:16:34;;;;;;;4.77;2.00;;;0.50;99.90;;;;;;5043631;28;20229;-78
2021/01/09 09:19:10;;;;;;;6.40;2.27;;;0.50;99.90;;;;;;5042999;28;20202;-77
2021/01/09 09:21:40;;;;;;;8.27;1.80;;;0.50;99.90;;;;;;5044929;28;20757;-76
2021/01/09 09:24:07;;;;;;;5.60;2.00;;;0.50;99.90;;;;;;5045235;28;20210;-78
2021/01/09 09:26:34;;;;;;;4.67;2.00;;;0.60;99.90;;;;;;5044378;28;20263;-78
2021/01/09 09:29:01;;;;;;;10.57;2.30;;;0.60;99.90;;;;;;5045329;28;20246;-78
2021/01/09 09:31:29;;;;;;;9.33;2.30;;;0.60;99.90;;;;;;5044939;28;20206;-78
2021/01/09 09:33:57;;;;;;;12.80;3.27;;;0.70;99.90;;;;;;5045067;28;20252;-79
2021/01/09 09:36:23;;;;;;;7.40;2.30;;;0.80;99.90;;;;;;5044527;28;20201;-79
2021/01/09 09:38:50;;;;;;;10.10;2.00;;;1.00;99.90;;;;;;5045296;28;20595;-78
2021/01/09 09:41:16;;;;;;;8.50;1.83;;;1.30;99.90;;;;;;5044947;28;20529;-79
2021/01/09 09:43:53;;;;;;;11.00;1.43;;;1.50;99.90;;;;;;5044718;28;20212;-79
2021/01/09 09:46:20;;;;;;;3.93;1.40;;;1.70;99.90;;;;;;5044685;28;20194;-80
2021/01/09 09:48:47;;;;;;;5.60;1.30;;;1.90;99.90;;;;;;5045465;28;20241;-80
2021/01/09 09:51:14;;;;;;;4.40;1.23;;;1.90;99.90;;;;;;5045223;28;20320;-80
2021/01/09 09:53:50;;;;;;;5.70;1.00;;;2.00;99.90;;;;;;5044379;28;20228;-80
2021/01/09 09:56:18;;;;;;;6.07;1.10;;;2.00;99.90;;;;;;5045214;28;20230;-80
2021/01/09 09:58:45;;;;;;;6.40;0.90;;;2.10;99.90;;;;;;5044408;28;20205;-79
2021/01/09 10:01:18;;;;;;;4.93;0.90;;;2.20;99.90;;;;;;5044102;28;20271;-79
2021/01/09 10:03:45;;;;;;;2.90;0.80;;;2.30;99.90;;;;;;5044706;28;20201;-83
2021/01/09 10:06:12;;;;;;;4.47;0.87;;;2.40;99.90;;;;;;5045058;28;20247;-78
2021/01/09 10:08:39;;;;;;;3.17;1.10;;;2.50;99.90;;;;;;5045087;28;20637;-83
2021/01/09 10:11:06;;;;;;;6.53;1.03;;;2.60;99.90;;;;;;5046129;28;20209;-83
2021/01/09 10:13:33;;;;;;;5.77;1.43;;;2.80;99.90;;;;;;5044418;28;20213;-81
2021/01/09 10:15:59;;;;;;;8.03;1.40;;;2.90;99.90;;;;;;5045322;28;20204;-79
2021/01/09 10:18:27;;;;;;;5.83;1.47;;;3.00;99.90;;;;;;5046430;28;20506;-80
2021/01/09 10:20:53;;;;;;;10.63;1.60;;;3.20;99.90;;;;;;5044784;28;20879;-85
2021/01/09 10:23:20;;;;;;;6.47;1.47;;;3.30;99.90;;;;;;5047784;28;20213;-85
2021/01/09 10:25:47;;;;;;;11.77;2.37;;;3.30;99.90;;;;;;5044160;28;20209;-80
2021/01/09 10:28:13;;;;;;;12.83;1.43;;;3.40;99.90;;;;;;5043836;28;20260;-83
2021/01/09 10:30:39;;;;;;;11.33;1.67;;;3.40;99.90;;;;;;5045491;28;20553;-82
2021/01/09 10:33:07;;;;;;;6.67;1.57;;;3.60;99.90;;;;;;5047961;28;20779;-84
2021/01/09 10:35:34;;;;;;;8.67;1.60;;;3.80;99.90;;;;;;5048174;28;20647;-85
2021/01/09 10:38:00;;;;;;;11.33;1.73;;;4.00;99.90;;;;;;5049196;28;20221;-86
2021/01/09 10:40:27;;;;;;;11.13;1.67;;;4.20;99.90;;;;;;5048392;28;20202;-87
2021/01/09 10:42:54;;;;;;;6.17;1.10;;;4.40;99.90;;;;;;5048225;28;20506;-90
2021/01/09 10:45:20;;;;;;;9.27;1.30;;;4.50;99.90;;;;;;5049213;28;20630;-89
2021/01/09 10:47:47;;;;;;;9.30;1.60;;;4.60;99.90;;;;;;5048305;28;20196;-89
2021/01/09 10:50:13;;;;;;;7.27;1.20;;;4.60;99.90;;;;;;5050314;28;20292;-88
2021/01/09 10:52:40;;;;;;;9.53;1.80;;;4.70;99.90;;;;;;5050461;28;20213;-86
2021/01/09 10:55:07;;;;;;;9.53;1.90;;;4.70;99.90;;;;;;5050415;28;20292;-92
2021/01/09 10:57:34;;;;;;;5.60;0.97;;;4.70;99.90;;;;;;5050977;28;20206;-88
2021/01/09 11:00:07;;;;;;;6.90;1.57;;;4.70;99.90;;;;;;5050473;28;20675;-87
2021/01/09 11:02:33;;;;;;;11.33;1.17;;;4.70;99.90;;;;;;5050764;28;20260;-89
2021/01/09 11:04:59;;;;;;;6.50;1.43;;;4.70;99.90;;;;;;5050098;28;20206;-89
2021/01/09 11:07:26;;;;;;;7.73;1.63;;;4.70;99.90;;;;;;5050510;28;20197;-88
2021/01/09 11:09:57;;;;;;;5.03;1.33;;;4.70;99.90;;;;;;5050884;28;20520;-87
2021/01/09 11:12:24;;;;;;;9.73;1.60;;;4.80;99.90;;;;;;5050233;28;20205;-86
2021/01/09 11:14:52;;;;;;;9.00;1.60;;;4.80;99.90;;;;;;5050217;28;20248;-87
2021/01/09 11:17:18;;;;;;;6.77;1.17;;;4.90;99.90;;;;;;5050223;28;20233;-85
2021/01/09 11:19:44;;;;;;;7.10;1.43;;;4.90;99.90;;;;;;5049549;28;20503;-86
2021/01/09 11:22:11;;;;;;;9.27;1.43;;;4.90;99.90;;;;;;5049144;28;20807;-87
2021/01/09 11:24:38;;;;;;;8.20;1.37;;;4.90;99.90;;;;;;5050483;28;20205;-90
2021/01/09 11:27:05;;;;;;;7.83;1.23;;;5.00;99.90;;;;;;5050262;28;20469;-91
2021/01/09 11:29:32;;;;;;;6.67;1.30;;;5.00;99.90;;;;;;5048751;28;20287;-86
2021/01/09 11:32:00;;;;;;;5.77;1.43;;;5.10;99.90;;;;;;5051298;28;20901;-87
2021/01/09 11:34:27;;;;;;;7.63;2.07;;;5.10;99.90;;;;;;5054865;28;20202;-88
2021/01/09 11:36:54;;;;;;;6.60;1.10;;;5.10;99.90;;;;;;5054986;28;20695;-89
2021/01/09 11:39:20;;;;;;;7.03;1.40;;;5.20;99.90;;;;;;5053985;28;20205;-88
2021/01/09 11:41:47;;;;;;;8.77;1.27;;;5.30;99.90;;;;;;5055619;28;20193;-89
2021/01/09 11:44:14;;;;;;;7.33;1.60;;;5.40;99.90;;;;;;5054321;28;20608;-89
2021/01/09 11:46:41;;;;;;;5.87;0.90;;;5.40;99.90;;;;;;5053600;28;20213;-88
2021/01/09 11:49:08;;;;;;;6.63;1.40;;;5.40;99.90;;;;;;5053854;28;20228;-87
2021/01/09 11:51:35;;;;;;;8.07;1.30;;;5.50;99.90;;;;;;5054022;28;20194;-87
2021/01/09 11:54:01;;;;;;;9.27;1.20;;;5.50;99.90;;;;;;5053952;28;20201;-87
2021/01/09 11:56:28;;;;;;;5.37;1.77;;;5.50;99.90;;;;;;5052862;28;20311;-88
2021/01/09 11:58:54;;;;;;;4.63;1.20;;;5.60;99.90;;;;;;5039704;28;20213;-87
2021/01/09 12:01:21;;;;;;;4.93;1.60;;;5.70;99.90;;;;;;5033681;28;20203;-87
2021/01/09 12:03:47;;;;;;;4.40;0.90;;;5.70;99.90;;;;;;5033880;28;20232;-88
2021/01/09 12:06:18;;;;;;;7.07;2.07;;;5.70;99.90;;;;;;5033895;28;20265;-87
2021/01/09 12:08:45;;;;;;;3.70;1.00;;;5.70;99.90;;;;;;5033921;28;20230;-87
2021/01/09 12:11:11;;;;;;;9.30;1.07;;;5.70;99.90;;;;;;5033932;28;20234;-86
2021/01/09 12:13:37;;;;;;;4.30;0.90;;;5.70;99.90;;;;;;5043570;28;20242;-85
2021/01/09 12:16:06;;;;;;;4.03;1.10;;;5.70;99.90;;;;;;5052500;28;20552;-87
2021/01/09 12:18:32;;;;;;;7.47;1.97;;;5.70;99.90;;;;;;5053204;28;20247;-85
2021/01/09 12:20:59;;;;;;;4.70;1.47;;;5.70;99.90;;;;;;5053282;28;20255;-86
2021/01/09 12:23:27;;;;;;;5.77;1.17;;;5.60;99.90;;;;;;5052860;28;20256;-87
2021/01/09 12:25:54;;;;;;;3.87;0.97;;;5.60;99.90;;;;;;5052965;28;20265;-87
2021/01/09 12:28:21;;;;;;;3.77;0.93;;;5.70;99.90;;;;;;5052914;28;20230;-87
2021/01/09 12:30:48;;;;;;;9.97;1.30;;;5.70;99.90;;;;;;5053095;28;20225;-85
2021/01/09 12:33:15;;;;;;;4.30;1.03;;;5.70;99.90;;;;;;5052893;28;20194;-84
2021/01/09 12:35:42;;;;;;;5.13;1.20;;;5.80;99.90;;;;;;5051776;28;20210;-84
2021/01/09 12:38:08;;;;;;;4.87;1.20;;;5.80;99.90;;;;;;5047333;28;20218;-89
2021/01/09 12:40:35;;;;;;;5.20;1.20;;;5.80;99.90;;;;;;5048791;28;20217;-87
2021/01/09 12:43:02;;;;;;;10.07;1.53;;;5.80;99.90;;;;;;5052776;28;20323;-87
2021/01/09 12:45:28;;;;;;;3.77;1.50;;;5.80;99.90;;;;;;5053553;28;20206;-90
2021/01/09 12:47:55;;;;;;;5.43;1.10;;;5.80;99.90;;;;;;5054044;28;20205;-90
2021/01/09 12:50:21;;;;;;;5.97;0.97;;;5.90;99.90;;;;;;5053590;28;20594;-88
2021/01/09 12:52:47;;;;;;;3.17;0.90;;;6.00;99.90;;;;;;5053400;28;20228;-85
2021/01/09 12:55:14;;;;;;;9.17;2.00;;;6.00;99.90;;;;;;5053245;28;20247;-84
2021/01/09 12:57:41;;;;;;;10.70;1.73;;;6.00;99.90;;;;;;5050870;28;20213;-88
2021/01/09 13:00:08;;;;;;;10.07;2.23;;;6.00;99.90;;;;;;5049955;28;20201;-91
2021/01/09 13:02:35;;;;;;;6.83;1.70;;;6.10;99.90;;;;;;5052459;28;20202;-86
2021/01/09 13:05:02;;;;;;;9.43;1.70;;;6.10;99.90;;;;;;5053120;28;20582;-86
2021/01/09 13:07:28;;;;;;;2.70;0.90;;;6.10;99.90;;;;;;5053781;28;20234;-87
2021/01/09 13:09:55;;;;;;;6.13;1.13;;;6.10;99.90;;;;;;5053658;28;20229;-89